Ava, NY

3:24 PM EDT on August 27, 2015 (GMT -0400)
Novoburgo | | Change Station
CLOSE
Current Station
Personal Weather Station
Location: Ava, NY
Elevation: 1211 ft
Nearby Weather Stations

Elev 1211 ft 43.33 °N, 75.44 °W | Updated 12 seconds ago

Overcast
Overcast
64.6 °F
Feels Like 64.6 °F
N
1.0
Wind Variable Wind from SSW
Gusts 2.0 mph

Today
High -- | Low -- °F
--% Chance of Precip.
Yesterday
High -- | Low -- °F
Precip. -- in
6:20 AM 7:45 PM
Waxing Gibbous, 94% visible
Pressure 30.10 in
Visibility 10.0 miles
Clouds Few 1700 ft
Mostly Cloudy 5500 ft
Overcast 7000 ft
Dew Point 60 °F
Humidity 85%
Rainfall 0.15 in
Snow Depth Not available.
UV 2 out of 12
Pollen 8.50 out of 12
Air Quality Not available.
Flu Activity Not available.
SPECI KRME 271915Z 25007KT 10SM FEW017 BKN055 OVC070 18/16 A3010 RMK AO2 RAE10 P0001 T01830161
Pressure 30.10 in
Visibility 10.0 miles
Clouds Few 1700 ft
Mostly Cloudy 5500 ft
Overcast 7000 ft
Dew Point 60 °F
Humidity 85%
Rainfall 0.15 in
Snow Depth Not available.
UV 2 out of 12
Pollen 8.50 out of 12
Air Quality Not available.
Flu Activity Not available.
SPECI KRME 271915Z 25007KT 10SM FEW017 BKN055 OVC070 18/16 A3010 RMK AO2 RAE10 P0001 T01830161

10-Day Weather Forecast

×

Almanac

Astronomy

Aug. 27, 2015 Rise Set
Actual Time
Civil Twilight
Nautical Twilight
Astronomical Twilight
Moon
Length of Visible Light
Length of Day
Tomorrow will be .
, % of the Moon is Illuminated

Today's Extremes

State Highs State Lows

Community

WunderPhotos

Upload Photos

1,850,195 photos uploaded!

WunderBlogs® & News

Nearby

Air Quality

  Air Quality AQ Index Pollutant
Not available.

Snow Depth

Station Depth Elevation

Earthquake Activity

City Distance Mag. Time & Date
Minimum magnitude displayed is 2.5.

Coastal Water Temperatures

Place Temperature

Stations

Nearby Weather Stations

Station Location Temp. Windchill Dew Point Humidity Wind Precip. Elev Updated Type